Time;durP1;ratioP1;P1;durP2;ratioP2;P2;SDS_P1;SDS_P2;PMS_P1;PMS_P2;Temp;Humidity;BMP_temperature;BMP_pressure;BME280_temperature;BME280_humidity;BME280_pressure;Samples;Min_cycle;Max_cycle;Signal;HPM_P1;HPM_P2
2022/10/24 00:08:48;;;;;;;3.20;1.30;;;16.00;99.90;;;;;;20500239;28;20750;-94
2022/10/24 00:19:32;;;;;;;1.45;0.75;;;16.00;99.90;;;;;;20419437;28;20058;-94
2022/10/24 00:29:54;;;;;;;2.23;0.47;;;15.90;99.90;;;;;;20230389;28;20075;-94
2022/10/24 00:40:11;;;;;;;2.83;0.57;;;16.00;99.90;;;;;;20282145;28;20052;-94
2022/10/24 00:50:37;;;;;;;1.60;0.82;;;16.20;99.90;;;;;;20475109;28;20129;-93
2022/10/24 01:01:09;;;;;;;1.58;0.50;;;16.30;99.90;;;;;;20487748;28;20125;-94
2022/10/24 01:11:35;;;;;;;1.55;0.60;;;16.30;99.90;;;;;;20529238;28;20068;-94
2022/10/24 01:21:53;;;;;;;1.55;0.60;;;16.30;99.90;;;;;;20487322;28;20384;-93
2022/10/24 01:32:16;;;;;;;2.30;0.50;;;16.30;99.90;;;;;;20478754;28;20049;-94
2022/10/24 01:42:25;;;;;;;4.03;1.10;;;16.40;99.90;;;;;;20534447;28;20044;-94
2022/10/24 01:53:11;;;;;;;1.10;0.40;;;16.30;99.90;;;;;;20533422;28;20045;-94
2022/10/24 02:04:05;;;;;;;1.38;0.50;;;16.30;99.90;;;;;;20452737;28;20747;-94
2022/10/24 02:14:54;;;;;;;0.95;0.50;;;16.30;99.90;;;;;;20425415;28;20747;-94
2022/10/24 02:25:23;;;;;;;2.55;0.40;;;16.20;99.90;;;;;;20312738;28;20069;-94
2022/10/24 02:35:39;;;;;;;1.83;0.98;;;16.20;99.90;;;;;;20368721;28;20454;-94
2022/10/24 02:46:37;;;;;;;4.70;0.30;;;16.10;99.90;;;;;;20416692;28;20054;-94
2022/10/24 02:57:20;;;;;;;3.17;0.70;;;16.10;99.90;;;;;;20280909;28;20050;-94
2022/10/24 03:07:42;;;;;;;0.80;0.30;;;16.00;99.90;;;;;;20418646;28;20288;-94
2022/10/24 03:18:02;;;;;;;2.97;0.77;;;15.90;99.90;;;;;;20499311;28;20074;-94
2022/10/24 03:28:21;;;;;;;2.08;1.08;;;16.00;99.90;;;;;;20484111;28;20779;-94
2022/10/24 03:39:08;;;;;;;0.85;0.30;;;16.00;99.90;;;;;;20464730;28;20037;-93
2022/10/24 03:50:00;;;;;;;2.33;0.50;;;16.10;99.90;;;;;;20398466;28;20086;-94
2022/10/24 04:01:18;;;;;;;4.78;0.40;;;16.10;99.90;;;;;;20424979;28;20233;-95
2022/10/24 04:11:43;;;;;;;1.15;0.40;;;16.00;99.90;;;;;;20458694;28;20629;-93
2022/10/24 04:22:08;;;;;;;0.70;0.30;;;16.10;99.90;;;;;;20456454;28;20066;-94
2022/10/24 04:32:37;;;;;;;8.27;0.82;;;16.00;99.90;;;;;;20432660;28;20073;-93
2022/10/24 04:43:20;;;;;;;0.85;0.40;;;16.10;99.90;;;;;;20421635;28;20587;-94
2022/10/24 04:53:50;;;;;;;1.35;0.45;;;16.20;99.90;;;;;;20430595;28;20842;-94
2022/10/24 05:04:52;;;;;;;1.00;0.43;;;16.30;99.90;;;;;;20534589;28;20083;-94
2022/10/24 05:15:15;;;;;;;1.77;0.60;;;16.40;99.90;;;;;;20321995;28;20065;-94
2022/10/24 05:25:54;;;;;;;1.00;0.28;;;16.50;99.90;;;;;;20374277;28;20055;-94
2022/10/24 05:35:58;;;;;;;0.60;0.15;;;16.30;99.90;;;;;;20435958;23;20601;-40
2022/10/24 05:45:59;;;;;;;1.20;0.57;;;16.30;99.90;;;;;;20728525;28;20501;-39
2022/10/24 05:56:00;;;;;;;1.55;0.68;;;16.30;99.90;;;;;;20725256;28;20687;-39
2022/10/24 06:06:06;;;;;;;0.95;0.43;;;16.30;99.90;;;;;;20725601;28;20658;-39
2022/10/24 06:16:09;;;;;;;0.73;0.30;;;16.30;99.90;;;;;;20721988;28;20046;-39
2022/10/24 06:26:11;;;;;;;1.70;0.70;;;16.30;99.90;;;;;;20726423;28;20045;-40
2022/10/24 06:36:13;;;;;;;0.65;0.17;;;16.30;99.90;;;;;;20717932;28;20061;-39
2022/10/24 06:46:16;;;;;;;2.65;0.80;;;16.40;99.90;;;;;;20713348;28;20167;-39
2022/10/24 06:56:17;;;;;;;1.02;0.50;;;16.40;99.90;;;;;;20720539;28;20378;-40
2022/10/24 07:06:22;;;;;;;9.77;0.82;;;16.50;99.90;;;;;;20716443;28;20061;-40
2022/10/24 07:16:24;;;;;;;1.38;0.50;;;16.60;99.90;;;;;;20711678;28;20680;-39
2022/10/24 07:26:28;;;;;;;2.58;0.68;;;16.50;99.90;;;;;;20710717;28;20054;-39
2022/10/24 07:36:32;;;;;;;3.85;0.30;;;16.50;99.90;;;;;;20710545;28;20597;-39
2022/10/24 07:46:33;;;;;;;4.20;0.40;;;16.50;99.90;;;;;;20717412;28;21851;-39
2022/10/24 07:56:34;;;;;;;0.63;0.28;;;16.50;99.90;;;;;;20709221;28;20046;-39
2022/10/24 08:06:35;;;;;;;1.08;0.30;;;16.40;99.90;;;;;;20704195;28;20114;-39
2022/10/24 08:16:37;;;;;;;2.80;1.05;;;16.40;99.90;;;;;;20716319;28;20104;-40
2022/10/24 08:26:40;;;;;;;2.83;0.65;;;15.80;99.90;;;;;;20720357;28;20049;-39
2022/10/24 08:36:41;;;;;;;1.17;0.38;;;16.00;99.90;;;;;;20709857;28;20053;-40
2022/10/24 08:47:01;;;;;;;3.40;1.13;;;16.00;99.90;;;;;;20714315;28;20116;-39
2022/10/24 08:57:03;;;;;;;2.67;0.65;;;16.00;99.90;;;;;;20716240;28;20104;-39
2022/10/24 09:07:04;;;;;;;1.33;0.43;;;15.90;99.90;;;;;;20705480;28;20038;-39
2022/10/24 09:17:22;;;;;;;1.27;0.47;;;16.00;99.90;;;;;;20695161;28;20080;-39
2022/10/24 09:27:27;;;;;;;1.07;0.37;;;16.00;99.90;;;;;;20723422;28;20894;-40
2022/10/24 09:37:47;;;;;;;2.58;1.10;;;16.00;99.90;;;;;;20717801;28;20083;-39
2022/10/24 09:47:55;;;;;;;0.95;0.40;;;16.30;99.90;;;;;;20724304;28;21925;-39
2022/10/24 09:58:02;;;;;;;2.33;0.70;;;16.30;99.90;;;;;;20723817;28;20557;-39
2022/10/24 10:08:10;;;;;;;1.33;0.27;;;16.40;99.90;;;;;;20758521;28;20160;-39
2022/10/24 10:18:25;;;;;;;;;;;16.50;99.90;;;;;;20734417;28;20061;-39
2022/10/24 10:28:26;;;;;;;1.08;0.43;;;16.60;99.90;;;;;;20753196;28;20317;-39
2022/10/24 10:38:48;;;;;;;1.15;0.57;;;16.40;99.90;;;;;;20721008;28;20049;-39
2022/10/24 10:48:56;;;;;;;1.13;0.50;;;16.90;99.90;;;;;;20719466;28;20271;-39
2022/10/24 10:59:31;;;;;;;4.78;1.35;;;16.80;99.90;;;;;;20719355;28;20543;-39
2022/10/24 11:09:48;;;;;;;0.77;0.28;;;16.60;99.90;;;;;;20709620;28;20934;-39
2022/10/24 11:19:58;;;;;;;3.45;0.32;;;16.40;99.90;;;;;;20718150;28;20065;-39
2022/10/24 11:30:17;;;;;;;1.50;0.55;;;16.30;99.90;;;;;;20712654;28;20104;-39
2022/10/24 11:40:22;;;;;;;4.28;0.52;;;15.90;99.90;;;;;;20718361;28;20042;-39
2022/10/24 11:50:44;;;;;;;1.40;0.40;;;15.80;99.90;;;;;;20714316;28;20881;-40
2022/10/24 12:01:04;;;;;;;3.15;0.80;;;15.90;99.90;;;;;;20717308;28;20803;-39
2022/10/24 12:11:10;;;;;;;2.28;1.10;;;16.10;99.90;;;;;;20710965;28;20053;-39
2022/10/24 12:21:14;;;;;;;4.55;0.70;;;15.70;99.90;;;;;;20709048;28;20057;-39
2022/10/24 12:31:17;;;;;;;2.70;0.32;;;15.60;99.90;;;;;;20712976;28;20155;-39
2022/10/24 12:41:33;;;;;;;2.97;0.80;;;15.70;99.90;;;;;;20716763;28;20045;-39
2022/10/24 12:51:40;;;;;;;0.68;0.28;;;15.90;99.90;;;;;;20727503;28;20661;-39
2022/10/24 13:01:41;;;;;;;3.37;0.50;;;15.70;99.90;;;;;;20720323;28;20055;-39
2022/10/24 13:11:48;;;;;;;2.88;0.60;;;15.00;99.90;;;;;;20713311;28;20046;-39
2022/10/24 13:21:51;;;;;;;3.08;1.10;;;14.40;99.90;;;;;;20713801;28;21957;-41
2022/10/24 13:32:13;;;;;;;1.80;0.47;;;14.30;99.90;;;;;;20681281;28;20056;-40
2022/10/24 13:42:30;;;;;;;2.83;1.48;;;14.20;99.90;;;;;;20713025;28;20057;-40
2022/10/24 13:52:35;;;;;;;8.30;1.35;;;14.10;99.90;;;;;;20705238;28;20084;-40
2022/10/24 14:02:40;;;;;;;2.10;0.90;;;13.90;99.90;;;;;;20725405;28;20037;-41
2022/10/24 14:12:43;;;;;;;2.58;0.80;;;14.10;99.90;;;;;;20714570;28;20142;-40
2022/10/24 14:22:44;;;;;;;1.23;0.32;;;14.20;99.90;;;;;;20713827;28;20219;-40
2022/10/24 14:32:45;;;;;;;2.75;0.75;;;14.20;99.90;;;;;;20699946;28;20717;-40
2022/10/24 14:42:47;;;;;;;2.65;1.17;;;14.40;99.90;;;;;;20710798;28;20077;-40
2022/10/24 14:52:48;;;;;;;3.30;0.60;;;14.90;99.90;;;;;;20716863;28;20054;-40
2022/10/24 15:02:51;;;;;;;3.00;1.15;;;15.10;99.90;;;;;;20716501;28;20061;-40
2022/10/24 15:13:02;;;;;;;4.60;0.63;;;15.50;99.90;;;;;;20714786;28;20050;-40
2022/10/24 15:23:05;;;;;;;2.33;0.60;;;15.30;99.90;;;;;;20715878;28;20046;-39
2022/10/24 15:33:08;;;;;;;8.88;1.00;;;15.10;99.90;;;;;;20715011;28;20057;-39
2022/10/24 15:43:12;;;;;;;2.67;0.65;;;15.10;99.90;;;;;;20687488;28;20073;-39
2022/10/24 15:53:17;;;;;;;9.57;0.65;;;15.00;99.90;;;;;;20700516;28;20037;-39
2022/10/24 16:03:22;;;;;;;1.45;0.52;;;15.00;99.90;;;;;;20708724;28;20137;-39
2022/10/24 16:13:23;;;;;;;5.53;0.65;;;14.90;99.90;;;;;;20711589;28;20839;-39
2022/10/24 16:23:25;;;;;;;4.30;1.42;;;14.80;99.90;;;;;;20740777;28;20095;-39
2022/10/24 16:33:26;;;;;;;1.77;0.98;;;14.70;99.90;;;;;;20739803;28;20049;-39
2022/10/24 16:43:27;;;;;;;3.45;0.90;;;14.70;99.90;;;;;;20725815;28;20064;-39
2022/10/24 16:53:28;;;;;;;10.90;2.95;;;14.60;99.90;;;;;;20714787;28;20042;-40
2022/10/24 17:03:29;;;;;;;2.88;0.90;;;14.60;99.90;;;;;;20727120;28;20046;-39
2022/10/24 17:13:30;;;;;;;2.58;1.50;;;14.40;99.90;;;;;;20721970;28;20045;-39
2022/10/24 17:23:31;;;;;;;1.48;0.68;;;14.20;99.90;;;;;;20690021;28;20811;-39
2022/10/24 17:33:33;;;;;;;4.95;1.13;;;14.10;99.90;;;;;;20727281;28;20041;-39
2022/10/24 17:43:34;;;;;;;2.67;0.63;;;14.00;99.90;;;;;;20735320;28;20045;-39
2022/10/24 17:53:35;;;;;;;3.08;0.95;;;13.80;99.90;;;;;;20733778;28;20046;-39
2022/10/24 18:03:36;;;;;;;3.00;1.70;;;13.80;99.90;;;;;;20729155;28;20046;-39
2022/10/24 18:13:38;;;;;;;3.72;1.00;;;13.70;99.90;;;;;;20726221;28;20041;-39
2022/10/24 18:23:39;;;;;;;3.20;1.33;;;13.70;99.90;;;;;;20718765;28;20112;-39
2022/10/24 18:33:41;;;;;;;2.25;0.85;;;13.70;99.90;;;;;;20717973;28;20099;-39
2022/10/24 18:43:42;;;;;;;3.15;1.73;;;13.80;99.90;;;;;;20728419;28;20505;-39
2022/10/24 18:53:45;;;;;;;3.30;1.02;;;14.00;99.90;;;;;;20723513;28;20111;-39
2022/10/24 19:03:46;;;;;;;3.88;1.48;;;14.10;99.90;;;;;;20720088;28;20519;-39
2022/10/24 19:13:47;;;;;;;3.03;1.08;;;14.00;99.90;;;;;;20716222;28;20109;-39
2022/10/24 19:23:49;;;;;;;7.30;2.45;;;13.90;99.90;;;;;;20711054;28;20080;-39
2022/10/24 19:33:52;;;;;;;4.38;1.38;;;13.90;99.90;;;;;;20714562;28;20142;-39
2022/10/24 19:43:53;;;;;;;5.10;2.75;;;13.80;99.90;;;;;;20701709;28;20081;-40
2022/10/24 19:53:55;;;;;;;5.78;1.50;;;13.70;99.90;;;;;;20697321;28;20046;-39
2022/10/24 20:03:58;;;;;;;4.35;1.83;;;13.70;99.90;;;;;;20707178;28;20773;-39
2022/10/24 20:13:59;;;;;;;4.43;1.90;;;13.60;99.90;;;;;;20702860;28;20050;-39
2022/10/24 20:24:00;;;;;;;3.85;2.05;;;13.60;99.90;;;;;;20698334;28;20049;-39
2022/10/24 20:34:03;;;;;;;4.35;2.42;;;13.50;99.90;;;;;;20710324;28;20034;-39
2022/10/24 20:44:05;;;;;;;2.38;1.08;;;13.40;99.90;;;;;;20709558;28;20042;-39
2022/10/24 20:54:08;;;;;;;4.05;1.33;;;13.50;99.90;;;;;;20711354;28;20069;-39
2022/10/24 21:04:09;;;;;;;3.00;1.60;;;13.30;99.90;;;;;;20716067;28;20053;-39
2022/10/24 21:14:12;;;;;;;2.78;1.05;;;13.40;99.90;;;;;;20722423;28;20530;-39
2022/10/24 21:24:16;;;;;;;2.55;1.10;;;13.30;99.90;;;;;;20715036;28;20080;-39
2022/10/24 21:34:18;;;;;;;5.97;1.55;;;13.30;99.90;;;;;;20727126;28;20049;-37
2022/10/24 21:44:22;;;;;;;4.22;1.30;;;13.20;99.90;;;;;;20716981;28;20108;-37
2022/10/24 21:54:24;;;;;;;1.58;0.57;;;13.20;99.90;;;;;;20735921;28;20410;-37
2022/10/24 22:04:25;;;;;;;1.27;0.70;;;13.10;99.90;;;;;;20729520;28;20112;-37
2022/10/24 22:14:26;;;;;;;3.33;0.80;;;13.10;99.90;;;;;;20739350;28;20056;-37
2022/10/24 22:24:27;;;;;;;2.45;0.77;;;13.10;99.90;;;;;;20723437;28;20830;-37
2022/10/24 22:34:28;;;;;;;1.88;0.47;;;13.20;99.90;;;;;;20726478;28;20057;-38
2022/10/24 22:44:30;;;;;;;3.15;0.95;;;13.20;99.90;;;;;;20712759;28;20045;-39
2022/10/24 22:54:34;;;;;;;0.90;0.47;;;13.10;99.90;;;;;;20713924;28;20498;-39
2022/10/24 23:04:50;;;;;;;1.75;0.90;;;13.00;99.90;;;;;;20710092;28;20794;-39
2022/10/24 23:14:52;;;;;;;3.42;1.08;;;13.00;99.90;;;;;;20707487;28;20107;-39
2022/10/24 23:24:56;;;;;;;1.75;0.75;;;13.10;99.90;;;;;;20704903;28;20497;-39
2022/10/24 23:34:58;;;;;;;7.15;1.95;;;13.20;99.90;;;;;;20703147;28;20521;-39
2022/10/24 23:44:59;;;;;;;2.33;1.23;;;13.30;99.90;;;;;;20711006;28;20046;-39
2022/10/24 23:55:00;;;;;;;3.40;1.35;;;13.50;99.90;;;;;;20716532;28;20045;-39
